This is the latest recevied weather packets stored in our database for station/object EA6AMI-5. If no packets are shown the sender has not sent any weather packets the latest 10 day(s).
| Time | Temp. | Humidity | Pressure | Rain* | Wind** | Luminosity | Snow |
|---|---|---|---|---|---|---|---|
| 1787994543 | 28.33° C | 50% | 1019.1 hPa | 0 mm | - | 476 W/m² | - |
| 1787994003 | 28.33° C | 50% | 1019 hPa | 0 mm | - | 461 W/m² | - |
| 1787993643 | 28.33° C | 50% | 1018.6 hPa | 0 mm | - | 447 W/m² | - |
| 1787993103 | 28.33° C | 50% | 1018.9 hPa | 0 mm | - | 426 W/m² | - |
| 1787992563 | 27.78° C | 51% | 1018.5 hPa | 0 mm | - | 406 W/m² | - |
| 1787992023 | 27.78° C | 52% | 1018.5 hPa | 0 mm | - | 385 W/m² | - |
| 1787991483 | 27.22° C | 52% | 1018.6 hPa | 0 mm | - | 362 W/m² | - |
| 1787990943 | 27.22° C | 51% | 1018.5 hPa | 0 mm | - | 335 W/m² | - |
| 1787990403 | 27.22° C | 51% | 1018.4 hPa | 0 mm | - | 307 W/m² | - |
| 1787990043 | 27.22° C | 51% | 1018.3 hPa | 0 mm | - | 292 W/m² | - |
| 1787989503 | 27.22° C | 51% | 1018.5 hPa | 0 mm | - | 270 W/m² | - |
| 1787988963 | 26.67° C | 51% | 1018.4 hPa | 0 mm | - | 246 W/m² | - |
| 1787988424 | 26.11° C | 54% | 1018.5 hPa | 0 mm | - | 218 W/m² | - |
| 1787987883 | 26.11° C | 52% | 1018.5 hPa | 0 mm | - | 182 W/m² | - |
| 1787987343 | 25.56° C | 54% | 1018.5 hPa | 0 mm | - | 144 W/m² | - |
| 1787986803 | 25° C | 57% | 1018.6 hPa | 0 mm | - | 118 W/m² | - |
| 1787986443 | 24.44° C | 58% | 1018.4 hPa | 0 mm | - | 108 W/m² | - |
| 1787985903 | 23.33° C | 61% | 1018.4 hPa | 0 mm | - | 95 W/m² | - |
| 1787985364 | 22.78° C | 62% | 1018.1 hPa | 0 mm | - | 83 W/m² | - |
| 1787984824 | 22.78° C | 64% | 1018.2 hPa | 0 mm | - | 72 W/m² | - |
| 1787984284 | 22.78° C | 66% | 1018 hPa | 0 mm | - | 61 W/m² | - |
| 1787983744 | 22.22° C | 67% | 1018 hPa | 0 mm | - | 50 W/m² | - |
| 1787983203 | 21.67° C | 70% | 1018 hPa | 0 mm | - | 39 W/m² | - |
| 1787982844 | 21.67° C | 70% | 1017.9 hPa | 0 mm | - | 32 W/m² | - |
| 1787982303 | 21.11° C | 70% | 1017.7 hPa | 0 mm | - | 23 W/m² | - |
* Rain latest hour (hover to see other rain measurements)
** Current wind speed in m/s (hover to see current wind gust speed)